Time;durP1;ratioP1;P1;durP2;ratioP2;P2;SDS_P1;SDS_P2;PMS_P1;PMS_P2;Temp;Humidity;BMP_temperature;BMP_pressure;BME280_temperature;BME280_humidity;BME280_pressure;Samples;Min_cycle;Max_cycle;Signal;HPM_P1;HPM_P2
2023/02/23 00:01:15;;;;;;;18.33;13.13;;;;;;;;;;5057056;28;20522;-57
2023/02/23 00:03:42;;;;;;;15.30;11.00;;;;;;;;;;5056668;28;20120;-53
2023/02/23 00:06:08;;;;;;;18.88;12.65;;;;;;;;;;5057253;28;20120;-55
2023/02/23 00:08:35;;;;;;;17.17;12.30;;;;;;;;;;5057129;28;20029;-53
2023/02/23 00:11:04;;;;;;;16.00;10.93;;;;;;;;;;5057077;28;20036;-53
2023/02/23 00:13:30;;;;;;;15.90;12.25;;;;;;;;;;5056457;28;20080;-52
2023/02/23 00:15:56;;;;;;;17.52;12.48;;;;;;;;;;5057293;28;20355;-54
2023/02/23 00:18:22;;;;;;;18.23;12.10;;;;;;;;;;5056405;28;20025;-54
2023/02/23 00:20:56;;;;;;;17.02;11.30;;;;;;;;;;5056006;28;20032;-54
2023/02/23 00:23:22;;;;;;;16.67;10.35;;;;;;;;;;5056183;28;20348;-55
2023/02/23 00:25:48;;;;;;;15.13;10.27;;;;;;;;;;5056647;28;20025;-53
2023/02/23 00:28:14;;;;;;;17.67;11.95;;;;;;;;;;5056141;28;20048;-53
2023/02/23 00:30:40;;;;;;;18.45;11.80;;;;;;;;;;5056175;28;20052;-55
2023/02/23 00:33:06;;;;;;;16.35;12.05;;;;;;;;;;5056119;28;20056;-56
2023/02/23 00:35:33;;;;;;;16.83;12.98;;;;;;;;;;5056675;28;20021;-55
2023/02/23 00:37:59;;;;;;;18.15;13.38;;;;;;;;;;5055959;28;20094;-56
2023/02/23 00:40:25;;;;;;;17.02;11.02;;;;;;;;;;5056507;28;20451;-55
2023/02/23 00:42:51;;;;;;;14.00;11.25;;;;;;;;;;5055918;28;20025;-52
2023/02/23 00:45:19;;;;;;;14.90;11.70;;;;;;;;;;5056478;28;20063;-56
2023/02/23 00:47:47;;;;;;;17.05;12.02;;;;;;;;;;5055863;28;20040;-52
2023/02/23 00:50:14;;;;;;;15.82;12.23;;;;;;;;;;5055755;28;20033;-54
2023/02/23 00:52:41;;;;;;;21.33;13.93;;;;;;;;;;5055836;28;20029;-56
2023/02/23 00:55:08;;;;;;;15.10;11.90;;;;;;;;;;5056533;28;20132;-56
2023/02/23 00:57:34;;;;;;;12.63;11.32;;;;;;;;;;5055607;28;20086;-56
2023/02/23 01:00:00;;;;;;;18.73;12.02;;;;;;;;;;5056356;28;20098;-54
2023/02/23 01:02:29;;;;;;;19.20;13.15;;;;;;;;;;5055905;28;20033;-54
2023/02/23 01:04:55;;;;;;;14.70;12.43;;;;;;;;;;5056426;28;20033;-55
2023/02/23 01:07:24;;;;;;;14.65;12.30;;;;;;;;;;5055523;28;20044;-54
2023/02/23 01:09:50;;;;;;;17.05;11.50;;;;;;;;;;5055682;28;20025;-54
2023/02/23 01:12:16;;;;;;;14.45;12.23;;;;;;;;;;5055435;28;20029;-56
2023/02/23 01:14:42;;;;;;;15.50;12.63;;;;;;;;;;5056013;28;20478;-55
2023/02/23 01:17:08;;;;;;;18.20;13.45;;;;;;;;;;5055489;28;20052;-56
2023/02/23 01:19:34;;;;;;;17.55;11.35;;;;;;;;;;5055424;28;20033;-55
2023/02/23 01:22:01;;;;;;;13.68;11.52;;;;;;;;;;5055515;28;20025;-54
2023/02/23 01:24:27;;;;;;;16.50;12.95;;;;;;;;;;5055421;28;20029;-55
2023/02/23 01:26:53;;;;;;;13.63;11.40;;;;;;;;;;5055613;28;20040;-55
2023/02/23 01:29:19;;;;;;;18.92;13.00;;;;;;;;;;5054811;28;20025;-55
2023/02/23 01:31:47;;;;;;;18.77;12.85;;;;;;;;;;5055590;28;20033;-55
2023/02/23 01:34:13;;;;;;;17.33;11.95;;;;;;;;;;5054987;28;20025;-54
2023/02/23 01:36:41;;;;;;;17.40;12.82;;;;;;;;;;5054839;28;20020;-53
2023/02/23 01:39:10;;;;;;;17.25;11.30;;;;;;;;;;5055207;28;20029;-55
2023/02/23 01:41:36;;;;;;;17.33;12.25;;;;;;;;;;5054872;28;20029;-55
2023/02/23 01:44:06;;;;;;;20.80;13.38;;;;;;;;;;5054773;28;20036;-55
2023/02/23 01:46:37;;;;;;;16.52;11.95;;;;;;;;;;5054587;28;20029;-56
2023/02/23 01:49:05;;;;;;;14.23;12.63;;;;;;;;;;5054928;28;20409;-55
2023/02/23 01:51:33;;;;;;;23.15;12.73;;;;;;;;;;5054660;28;20104;-55
2023/02/23 01:54:01;;;;;;;16.08;11.75;;;;;;;;;;5054608;28;20028;-55
2023/02/23 01:56:31;;;;;;;18.58;12.65;;;;;;;;;;5054547;28;20025;-55
2023/02/23 01:58:59;;;;;;;16.92;12.90;;;;;;;;;;5054549;28;20125;-56
2023/02/23 02:01:26;;;;;;;21.13;14.13;;;;;;;;;;5054172;28;20669;-54
2023/02/23 02:04:00;;;;;;;18.77;12.48;;;;;;;;;;5055227;28;20029;-52
2023/02/23 02:06:27;;;;;;;16.60;12.95;;;;;;;;;;5055025;28;20029;-54
2023/02/23 02:08:55;;;;;;;19.80;13.07;;;;;;;;;;5054870;28;20466;-55
2023/02/23 02:11:35;;;;;;;16.90;13.23;;;;;;;;;;5054634;28;20028;-55
2023/02/23 02:14:01;;;;;;;17.42;13.38;;;;;;;;;;5054451;28;20041;-55
2023/02/23 02:16:36;;;;;;;17.45;12.48;;;;;;;;;;5054083;28;20029;-54
2023/02/23 02:19:05;;;;;;;15.73;12.23;;;;;;;;;;5054067;28;20386;-54
2023/02/23 02:21:50;;;;;;;18.83;11.30;;;;;;;;;;5054139;28;20039;-50
2023/02/23 02:24:20;;;;;;;16.50;11.43;;;;;;;;;;5054595;28;20037;-56
2023/02/23 02:26:59;;;;;;;17.02;12.85;;;;;;;;;;5054640;28;20367;-56
2023/02/23 02:29:30;;;;;;;16.15;11.88;;;;;;;;;;5054502;28;20351;-54
2023/02/23 02:32:25;;;;;;;19.27;12.85;;;;;;;;;;5053968;28;20037;-56
2023/02/23 02:34:54;;;;;;;15.05;11.68;;;;;;;;;;5053924;28;20021;-56
2023/02/23 02:37:20;;;;;;;15.63;12.02;;;;;;;;;;5053825;28;20032;-54
2023/02/23 02:40:15;;;;;;;17.17;12.38;;;;;;;;;;5053794;28;20025;-56
2023/02/23 02:43:00;;;;;;;19.23;11.82;;;;;;;;;;5052916;28;20147;-56
2023/02/23 02:45:44;;;;;;;15.48;12.43;;;;;;;;;;5054540;28;20079;-53
2023/02/23 02:48:29;;;;;;;18.17;11.88;;;;;;;;;;5052766;28;20075;-53
2023/02/23 02:51:00;;;;;;;14.95;10.55;;;;;;;;;;5054439;28;20356;-54
2023/02/23 02:53:26;;;;;;;;;;;;;;;;;;5054734;28;20325;-56
2023/02/23 02:55:55;;;;;;;19.98;10.63;;;;;;;;;;5054231;28;19963;-55
2023/02/23 02:58:24;;;;;;;15.60;10.50;;;;;;;;;;5053578;28;20032;-52
2023/02/23 04:19:14;;;;;;;16.10;11.60;;;;;;;;;;5056655;28;20045;-53
2023/02/23 04:21:40;;;;;;;13.18;9.80;;;;;;;;;;5056080;28;20482;-54
2023/02/23 04:24:06;;;;;;;16.55;9.55;;;;;;;;;;5056317;28;20029;-56
2023/02/23 04:26:32;;;;;;;12.10;8.95;;;;;;;;;;5056917;28;20435;-54
2023/02/23 04:28:58;;;;;;;11.30;8.90;;;;;;;;;;5056182;28;20024;-55
2023/02/23 04:31:24;;;;;;;12.90;9.77;;;;;;;;;;5056279;28;20021;-54
2023/02/23 04:33:50;;;;;;;13.05;9.27;;;;;;;;;;5056762;28;20028;-56
2023/02/23 04:36:16;;;;;;;9.65;8.65;;;;;;;;;;5056809;28;20025;-56
2023/02/23 04:38:42;;;;;;;14.57;9.82;;;;;;;;;;5056140;28;20051;-56
2023/02/23 04:41:08;;;;;;;16.95;11.73;;;;;;;;;;5056403;28;20036;-56
2023/02/23 04:43:34;;;;;;;11.32;9.40;;;;;;;;;;5056308;28;20025;-56
2023/02/23 04:46:00;;;;;;;13.80;11.35;;;;;;;;;;5056060;28;20455;-54
2023/02/23 04:48:27;;;;;;;12.57;9.77;;;;;;;;;;5056778;28;20060;-56
2023/02/23 04:50:53;;;;;;;13.80;9.60;;;;;;;;;;5056245;28;20063;-56
2023/02/23 04:53:20;;;;;;;13.27;9.32;;;;;;;;;;5056702;28;20031;-56
2023/02/23 04:55:45;;;;;;;13.50;10.75;;;;;;;;;;5056494;28;20356;-54
2023/02/23 04:58:14;;;;;;;12.10;10.07;;;;;;;;;;5055762;28;20087;-56
2023/02/23 05:00:41;;;;;;;13.07;9.68;;;;;;;;;;5056037;28;20033;-56
2023/02/23 05:03:07;;;;;;;12.45;10.10;;;;;;;;;;5055996;28;20025;-56
2023/02/23 05:05:33;;;;;;;15.05;10.18;;;;;;;;;;5055957;28;20036;-54
2023/02/23 05:07:59;;;;;;;11.30;9.73;;;;;;;;;;5055616;28;20043;-56
2023/02/23 05:10:25;;;;;;;12.15;9.88;;;;;;;;;;5054543;28;20025;-56
2023/02/23 05:12:51;;;;;;;10.90;9.07;;;;;;;;;;5055364;28;20028;-55
2023/02/23 05:15:18;;;;;;;13.98;9.75;;;;;;;;;;5055847;28;20021;-56
2023/02/23 05:17:44;;;;;;;13.90;9.38;;;;;;;;;;5055573;28;20055;-55
2023/02/23 05:20:10;;;;;;;13.98;9.80;;;;;;;;;;5056052;28;20120;-55
2023/02/23 05:22:37;;;;;;;17.65;10.00;;;;;;;;;;5055336;28;20438;-56
2023/02/23 05:25:03;;;;;;;10.45;8.75;;;;;;;;;;5055939;28;20431;-56
2023/02/23 05:27:30;;;;;;;12.63;9.77;;;;;;;;;;5055529;28;20409;-55
2023/02/23 05:29:56;;;;;;;15.77;10.27;;;;;;;;;;5055209;28;20021;-56
2023/02/23 05:32:22;;;;;;;12.15;9.90;;;;;;;;;;5055181;28;20083;-56
2023/02/23 05:34:48;;;;;;;11.63;9.65;;;;;;;;;;5055224;28;20413;-55
2023/02/23 05:37:14;;;;;;;10.85;8.88;;;;;;;;;;5054956;28;20087;-56
2023/02/23 05:39:40;;;;;;;9.57;8.55;;;;;;;;;;5055043;28;20032;-54
2023/02/23 05:42:06;;;;;;;9.63;8.05;;;;;;;;;;5054922;28;20029;-53
2023/02/23 05:44:32;;;;;;;14.93;9.80;;;;;;;;;;5054991;28;20032;-56
2023/02/23 05:46:58;;;;;;;11.60;8.23;;;;;;;;;;5055423;28;20064;-56
2023/02/23 05:49:24;;;;;;;14.02;7.95;;;;;;;;;;5055296;28;20025;-54
2023/02/23 05:51:50;;;;;;;10.57;8.95;;;;;;;;;;5054967;28;20025;-56
2023/02/23 05:54:16;;;;;;;10.85;8.70;;;;;;;;;;5054744;28;20028;-54
2023/02/23 05:56:42;;;;;;;8.63;7.72;;;;;;;;;;5055307;28;20375;-56
2023/02/23 05:59:08;;;;;;;12.38;8.23;;;;;;;;;;5054704;28;20056;-56
2023/02/23 06:01:34;;;;;;;13.23;8.82;;;;;;;;;;5054891;28;20060;-56
2023/02/23 06:04:00;;;;;;;9.77;7.20;;;;;;;;;;5054472;28;20020;-54
2023/02/23 06:06:27;;;;;;;13.50;9.15;;;;;;;;;;5055096;28;20074;-55
2023/02/23 06:08:53;;;;;;;11.68;8.25;;;;;;;;;;5055195;28;20025;-56
2023/02/23 06:11:19;;;;;;;9.88;8.30;;;;;;;;;;5054713;28;20025;-56
2023/02/23 06:13:45;;;;;;;12.07;7.97;;;;;;;;;;5054474;28;20045;-56
2023/02/23 06:16:11;;;;;;;10.45;8.02;;;;;;;;;;5054353;28;20041;-56
2023/02/23 06:18:37;;;;;;;10.38;7.57;;;;;;;;;;5054430;28;20029;-56
2023/02/23 06:21:03;;;;;;;14.48;8.57;;;;;;;;;;5053824;28;20063;-54
2023/02/23 06:23:29;;;;;;;14.55;9.15;;;;;;;;;;5054317;28;20455;-55
2023/02/23 06:25:55;;;;;;;11.68;8.23;;;;;;;;;;5054253;28;20537;-54
2023/02/23 06:28:22;;;;;;;9.32;7.57;;;;;;;;;;5054492;28;20032;-56
2023/02/23 06:30:50;;;;;;;10.77;8.65;;;;;;;;;;5054073;28;20033;-56
2023/02/23 06:33:16;;;;;;;11.68;8.35;;;;;;;;;;5054129;28;20100;-56
2023/02/23 06:35:42;;;;;;;10.73;7.25;;;;;;;;;;5054294;28;20096;-56
2023/02/23 06:38:09;;;;;;;9.38;7.80;;;;;;;;;;5053876;28;20036;-55
2023/02/23 06:40:35;;;;;;;8.07;7.22;;;;;;;;;;5054202;28;20033;-55
2023/02/23 06:43:02;;;;;;;11.07;8.50;;;;;;;;;;5053854;28;20476;-53
2023/02/23 06:45:28;;;;;;;10.05;7.97;;;;;;;;;;5053871;28;20058;-54
2023/02/23 06:47:54;;;;;;;9.32;6.90;;;;;;;;;;5053543;28;20478;-56
2023/02/23 06:50:20;;;;;;;12.98;10.32;;;;;;;;;;5054073;28;20021;-56
2023/02/23 06:52:47;;;;;;;10.82;8.25;;;;;;;;;;5054044;28;20036;-54
2023/02/23 06:55:14;;;;;;;14.40;8.35;;;;;;;;;;5053604;28;20033;-56
2023/02/23 06:57:40;;;;;;;11.25;7.63;;;;;;;;;;5054113;28;20041;-56
2023/02/23 07:00:07;;;;;;;10.05;7.45;;;;;;;;;;5053567;28;20036;-55
2023/02/23 07:02:35;;;;;;;13.02;8.82;;;;;;;;;;5053324;28;20477;-56
2023/02/23 07:05:01;;;;;;;10.55;8.00;;;;;;;;;;5054424;28;20055;-56
2023/02/23 07:07:27;;;;;;;8.75;7.00;;;;;;;;;;5054377;28;20037;-56
2023/02/23 07:09:53;;;;;;;9.43;6.95;;;;;;;;;;5053485;28;20053;-56
2023/02/23 07:12:19;;;;;;;9.45;6.97;;;;;;;;;;5053604;28;20025;-56
2023/02/23 07:14:45;;;;;;;8.32;6.78;;;;;;;;;;5053891;28;20060;-56
2023/02/23 07:17:12;;;;;;;10.30;6.75;;;;;;;;;;5053358;28;20421;-56
2023/02/23 07:19:38;;;;;;;24.25;22.02;;;;;;;;;;5053635;28;20040;-56
2023/02/23 07:22:04;;;;;;;12.98;8.65;;;;;;;;;;5053440;28;20379;-54
2023/02/23 07:24:30;;;;;;;11.27;8.15;;;;;;;;;;5053447;28;20112;-56
2023/02/23 07:26:56;;;;;;;18.40;8.00;;;;;;;;;;5053416;28;20072;-55
2023/02/23 07:29:26;;;;;;;28.75;9.73;;;;;;;;;;5053390;28;20033;-55
2023/02/23 07:31:52;;;;;;;13.00;8.02;;;;;;;;;;5053526;28;20451;-55
2023/02/23 07:34:18;;;;;;;20.08;7.63;;;;;;;;;;5055706;28;20062;-55
2023/02/23 07:36:44;;;;;;;11.00;6.72;;;;;;;;;;5057815;28;20047;-57
2023/02/23 07:39:11;;;;;;;12.90;7.32;;;;;;;;;;5057163;28;20037;-56
2023/02/23 07:41:37;;;;;;;12.93;7.95;;;;;;;;;;5057483;28;20340;-56
2023/02/23 07:44:03;;;;;;;13.50;8.57;;;;;;;;;;5057110;28;20028;-56
2023/02/23 07:46:29;;;;;;;11.27;8.05;;;;;;;;;;5057960;28;20035;-56
2023/02/23 07:48:55;;;;;;;11.35;8.55;;;;;;;;;;5056998;28;20120;-55
2023/02/23 07:51:21;;;;;;;9.68;7.35;;;;;;;;;;5056927;28;20032;-55
2023/02/23 07:53:48;;;;;;;30.35;10.07;;;;;;;;;;5057328;28;20017;-56
2023/02/23 07:56:13;;;;;;;9.93;7.45;;;;;;;;;;5056956;28;20032;-56
2023/02/23 07:58:40;;;;;;;14.23;8.43;;;;;;;;;;5056788;28;20025;-56
2023/02/23 08:01:07;;;;;;;13.90;8.45;;;;;;;;;;5057259;28;20041;-57
2023/02/23 08:03:33;;;;;;;10.15;7.93;;;;;;;;;;5056452;28;20493;-57
2023/02/23 08:05:59;;;;;;;10.18;6.95;;;;;;;;;;5057408;28;20026;-56
2023/02/23 08:08:25;;;;;;;7.97;6.25;;;;;;;;;;5057143;28;20383;-56
2023/02/23 08:10:51;;;;;;;9.88;7.07;;;;;;;;;;5056754;28;20066;-55
2023/02/23 08:13:17;;;;;;;11.65;8.63;;;;;;;;;;5056799;28;20057;-55
2023/02/23 08:15:43;;;;;;;8.88;6.55;;;;;;;;;;5056848;28;20025;-56
2023/02/23 08:18:10;;;;;;;13.93;6.85;;;;;;;;;;5056413;28;20119;-55
2023/02/23 08:20:36;;;;;;;8.20;6.82;;;;;;;;;;5056192;28;20390;-56
2023/02/23 08:23:02;;;;;;;10.05;6.55;;;;;;;;;;5056398;28;20021;-57
2023/02/23 08:25:28;;;;;;;11.25;6.50;;;;;;;;;;5056960;28;20021;-56
2023/02/23 08:27:54;;;;;;;13.27;6.53;;;;;;;;;;5056218;28;20454;-57
2023/02/23 08:30:21;;;;;;;8.07;6.22;;;;;;;;;;5056754;28;20032;-56
2023/02/23 08:32:47;;;;;;;8.80;6.03;;;;;;;;;;5056297;28;20112;-57
2023/02/23 08:35:14;;;;;;;15.68;8.25;;;;;;;;;;5056730;28;20051;-56
2023/02/23 08:37:40;;;;;;;10.85;6.68;;;;;;;;;;5055985;28;20029;-57
2023/02/23 08:40:07;;;;;;;8.20;5.93;;;;;;;;;;5056041;28;20048;-56
2023/02/23 08:42:33;;;;;;;8.60;5.97;;;;;;;;;;5054764;28;20090;-56
2023/02/23 08:45:00;;;;;;;7.78;6.00;;;;;;;;;;5056524;28;20025;-57
2023/02/23 08:47:26;;;;;;;12.60;5.78;;;;;;;;;;5055771;28;20120;-56
2023/02/23 08:49:55;;;;;;;5.72;4.93;;;;;;;;;;5056038;28;20069;-57
2023/02/23 08:52:21;;;;;;;9.88;6.22;;;;;;;;;;5055918;28;20051;-58
2023/02/23 08:54:47;;;;;;;7.97;5.43;;;;;;;;;;5056253;28;20439;-58
2023/02/23 08:57:13;;;;;;;10.45;5.47;;;;;;;;;;5055764;28;20080;-58
2023/02/23 08:59:40;;;;;;;10.35;5.40;;;;;;;;;;5055671;28;20051;-57
2023/02/23 09:02:09;;;;;;;8.90;6.05;;;;;;;;;;5055731;28;20029;-58
2023/02/23 09:04:36;;;;;;;13.15;6.22;;;;;;;;;;5055932;28;20379;-58
2023/02/23 09:07:02;;;;;;;7.03;4.93;;;;;;;;;;5055502;28;20107;-59
2023/02/23 09:09:28;;;;;;;9.32;6.65;;;;;;;;;;5055904;28;20079;-59
2023/02/23 09:11:54;;;;;;;8.05;6.20;;;;;;;;;;5055569;28;20028;-59
2023/02/23 09:14:20;;;;;;;8.90;6.32;;;;;;;;;;5055638;28;20045;-57
2023/02/23 09:16:46;;;;;;;10.18;7.18;;;;;;;;;;5055326;28;20029;-57
2023/02/23 09:19:12;;;;;;;10.73;5.68;;;;;;;;;;5055218;28;20036;-58
2023/02/23 09:21:38;;;;;;;10.98;6.55;;;;;;;;;;5055327;28;20021;-58
2023/02/23 09:24:05;;;;;;;8.77;6.53;;;;;;;;;;5055266;28;20025;-58
2023/02/23 09:26:31;;;;;;;7.65;5.78;;;;;;;;;;5055441;28;20075;-58
2023/02/23 09:28:57;;;;;;;12.45;6.30;;;;;;;;;;5054978;28;20518;-57
2023/02/23 09:31:23;;;;;;;9.95;6.20;;;;;;;;;;5055165;28;20103;-58
2023/02/23 09:33:50;;;;;;;6.32;5.13;;;;;;;;;;5055032;28;20025;-56
2023/02/23 09:36:17;;;;;;;9.75;6.03;;;;;;;;;;5055039;28;20116;-57
2023/02/23 09:38:44;;;;;;;11.05;6.07;;;;;;;;;;5054900;28;20032;-58
2023/02/23 09:41:26;;;;;;;9.88;7.10;;;;;;;;;;5055194;28;20041;-58
2023/02/23 09:43:59;;;;;;;6.50;5.13;;;;;;;;;;5054777;28;20080;-57
2023/02/23 09:46:43;;;;;;;7.20;5.47;;;;;;;;;;5054806;28;20051;-58
2023/02/23 09:49:13;;;;;;;6.40;5.13;;;;;;;;;;5054798;28;20032;-57
2023/02/23 09:51:41;;;;;;;8.43;5.70;;;;;;;;;;5055290;28;20040;-57
2023/02/23 09:54:10;;;;;;;6.63;5.20;;;;;;;;;;5054960;28;20067;-58
2023/02/23 09:56:38;;;;;;;7.28;5.55;;;;;;;;;;5054366;28;20114;-57
2023/02/23 09:59:05;;;;;;;6.50;4.22;;;;;;;;;;5054517;28;20025;-57
2023/02/23 10:01:31;;;;;;;17.33;5.43;;;;;;;;;;5054454;28;20070;-58
2023/02/23 10:03:59;;;;;;;6.68;4.60;;;;;;;;;;5054518;28;20029;-58
2023/02/23 10:06:25;;;;;;;6.30;4.85;;;;;;;;;;5055000;28;20028;-57
2023/02/23 10:09:13;;;;;;;10.18;5.88;;;;;;;;;;5054345;28;20025;-58
2023/02/23 10:11:39;;;;;;;9.73;5.68;;;;;;;;;;5054293;28;20021;-58
2023/02/23 10:14:19;;;;;;;8.07;4.60;;;;;;;;;;5054734;28;20045;-58
2023/02/23 10:16:55;;;;;;;8.68;5.95;;;;;;;;;;5054235;28;20032;-58
2023/02/23 10:19:24;;;;;;;6.28;4.75;;;;;;;;;;5054469;28;20033;-58
2023/02/23 10:21:59;;;;;;;7.90;4.55;;;;;;;;;;5054120;28;20412;-58
2023/02/23 10:24:28;;;;;;;9.95;5.45;;;;;;;;;;5052797;28;20021;-58
2023/02/23 10:26:57;;;;;;;14.57;5.65;;;;;;;;;;5054063;28;20465;-58
2023/02/23 10:29:23;;;;;;;8.02;5.55;;;;;;;;;;5054060;28;20021;-57
2023/02/23 10:31:52;;;;;;;8.05;4.43;;;;;;;;;;5054590;28;20386;-58
2023/02/23 10:34:18;;;;;;;7.60;5.25;;;;;;;;;;5054016;28;20040;-58
2023/02/23 10:36:47;;;;;;;7.53;5.30;;;;;;;;;;5053923;28;20036;-58
2023/02/23 10:39:13;;;;;;;5.72;4.45;;;;;;;;;;5054238;28;20029;-58
2023/02/23 10:41:41;;;;;;;8.00;4.43;;;;;;;;;;5053898;28;20021;-58
2023/02/23 10:44:11;;;;;;;9.40;5.60;;;;;;;;;;5054125;28;20032;-58
2023/02/23 10:46:39;;;;;;;7.05;5.25;;;;;;;;;;5054439;28;20029;-58
2023/02/23 10:49:06;;;;;;;10.70;5.28;;;;;;;;;;5054302;28;20367;-58
2023/02/23 10:51:36;;;;;;;8.50;3.97;;;;;;;;;;5053684;28;20071;-58
2023/02/23 10:54:23;;;;;;;7.20;4.40;;;;;;;;;;5053667;28;20108;-57
2023/02/23 10:56:49;;;;;;;9.55;4.85;;;;;;;;;;5049345;28;20025;-58
2023/02/23 10:59:18;;;;;;;6.45;3.58;;;;;;;;;;5054035;28;20120;-57
2023/02/23 11:01:44;;;;;;;8.18;4.32;;;;;;;;;;5053786;28;20103;-56
2023/02/23 11:04:13;;;;;;;6.70;3.30;;;;;;;;;;5053587;28;20067;-57
2023/02/23 11:06:41;;;;;;;9.95;3.47;;;;;;;;;;5053980;28;20078;-56
2023/02/23 11:09:24;;;;;;;10.48;3.60;;;;;;;;;;5054915;28;20474;-56
2023/02/23 11:12:01;;;;;;;7.80;2.35;;;;;;;;;;5057802;28;20521;-55
2023/02/23 11:14:28;;;;;;;4.13;2.95;;;;;;;;;;5058107;28;20063;-57
2023/02/23 11:16:58;;;;;;;6.65;3.55;;;;;;;;;;5057731;28;20359;-57
2023/02/23 11:19:29;;;;;;;6.07;3.05;;;;;;;;;;5057341;28;20029;-57
2023/02/23 11:21:54;;;;;;;;;;;;;;;;;;5058300;28;20036;-55
2023/02/23 11:24:25;;;;;;;4.55;2.75;;;;;;;;;;5057849;28;19908;-56
2023/02/23 11:26:59;;;;;;;5.07;3.28;;;;;;;;;;5057435;28;20036;-57
2023/02/23 11:29:25;;;;;;;5.88;2.92;;;;;;;;;;5057760;28;20029;-57
2023/02/23 11:31:53;;;;;;;5.13;2.15;;;;;;;;;;5057089;28;20029;-57
2023/02/23 11:34:22;;;;;;;10.55;2.83;;;;;;;;;;5057212;28;20032;-57
2023/02/23 11:36:57;;;;;;;5.40;3.72;;;;;;;;;;5057380;28;20495;-57
2023/02/23 11:39:23;;;;;;;3.65;2.38;;;;;;;;;;5057686;28;20033;-57
2023/02/23 11:42:10;;;;;;;7.97;3.13;;;;;;;;;;5057595;28;20040;-57
2023/02/23 11:44:36;;;;;;;4.55;2.88;;;;;;;;;;5057511;28;20037;-57
2023/02/23 11:47:02;;;;;;;7.07;3.05;;;;;;;;;;5056972;28;20021;-58
2023/02/23 11:49:35;;;;;;;7.70;3.50;;;;;;;;;;5056802;28;20052;-58
2023/02/23 11:52:02;;;;;;;3.60;2.88;;;;;;;;;;5057056;28;20025;-54
2023/02/23 11:54:32;;;;;;;5.60;2.65;;;;;;;;;;5056537;28;20489;-56
2023/02/23 11:57:01;;;;;;;4.70;2.92;;;;;;;;;;5057184;28;20080;-58
2023/02/23 11:59:34;;;;;;;6.53;3.03;;;;;;;;;;5056695;28;20067;-57
2023/02/23 12:02:21;;;;;;;6.13;2.40;;;;;;;;;;5056932;28;20033;-57
2023/02/23 12:04:48;;;;;;;11.77;3.67;;;;;;;;;;5057848;28;20035;-57
2023/02/23 12:07:40;;;;;;;4.82;3.17;;;;;;;;;;5056737;28;20029;-57
2023/02/23 12:10:24;;;;;;;3.25;2.30;;;;;;;;;;5057474;28;20025;-57
2023/02/23 12:12:53;;;;;;;10.95;4.32;;;;;;;;;;5056373;28;20107;-57
2023/02/23 12:15:23;;;;;;;6.10;3.83;;;;;;;;;;5056986;28;20051;-56
2023/02/23 12:17:53;;;;;;;8.23;5.47;;;;;;;;;;5057320;28;20150;-57
2023/02/23 12:20:25;;;;;;;7.57;5.13;;;;;;;;;;5056538;28;20102;-58
2023/02/23 12:22:52;;;;;;;9.57;4.45;;;;;;;;;;5056216;28;20252;-57
2023/02/23 12:25:24;;;;;;;6.22;3.67;;;;;;;;;;5056778;28;20028;-57
2023/02/23 12:27:57;;;;;;;6.18;4.22;;;;;;;;;;5056376;28;20029;-58
2023/02/23 12:30:27;;;;;;;8.63;5.32;;;;;;;;;;5056594;28;20024;-57
2023/02/23 12:32:59;;;;;;;6.20;4.90;;;;;;;;;;5056346;28;20099;-56
2023/02/23 12:35:44;;;;;;;8.98;4.85;;;;;;;;;;5056836;28;20021;-57
2023/02/23 12:38:26;;;;;;;7.28;5.18;;;;;;;;;;5056057;28;20049;-57
2023/02/23 12:40:55;;;;;;;5.80;4.80;;;;;;;;;;5056707;28;20063;-57
2023/02/23 12:43:29;;;;;;;6.07;4.97;;;;;;;;;;5056854;28;20443;-58
2023/02/23 12:46:11;;;;;;;11.38;5.22;;;;;;;;;;5056098;28;20030;-58
2023/02/23 12:48:44;;;;;;;6.65;5.00;;;;;;;;;;5056028;28;20493;-58
2023/02/23 12:51:26;;;;;;;8.55;4.88;;;;;;;;;;5056075;28;20029;-57
2023/02/23 12:53:52;;;;;;;7.13;4.63;;;;;;;;;;5056323;28;20063;-57
2023/02/23 12:56:40;;;;;;;6.75;4.10;;;;;;;;;;5055985;28;20463;-58
2023/02/23 12:59:18;;;;;;;7.53;4.47;;;;;;;;;;5056005;28;20381;-58
2023/02/23 13:01:48;;;;;;;8.07;4.95;;;;;;;;;;5055847;28;20037;-57
2023/02/23 13:04:41;;;;;;;6.43;4.65;;;;;;;;;;5055648;28;20075;-57
2023/02/23 13:07:28;;;;;;;7.18;4.72;;;;;;;;;;5055951;28;20033;-57
2023/02/23 13:10:06;;;;;;;7.05;4.18;;;;;;;;;;5044460;28;20044;-57
2023/02/23 13:12:50;;;;;;;7.20;4.18;;;;;;;;;;5055962;28;20040;-57
2023/02/23 13:15:28;;;;;;;12.85;4.78;;;;;;;;;;5055815;28;20048;-57
2023/02/23 13:18:02;;;;;;;4.35;3.88;;;;;;;;;;5055400;28;20108;-57
2023/02/23 13:20:40;;;;;;;5.18;3.83;;;;;;;;;;5055567;28;20397;-55
2023/02/23 13:23:22;;;;;;;8.40;4.20;;;;;;;;;;5055576;28;20146;-58
2023/02/23 13:25:50;;;;;;;9.48;4.28;;;;;;;;;;5055446;28;20375;-58
2023/02/23 13:28:37;;;;;;;4.28;2.78;;;;;;;;;;5054884;28;20544;-55
2023/02/23 13:31:03;;;;;;;7.32;4.43;;;;;;;;;;5043134;28;20065;-57
2023/02/23 13:33:34;;;;;;;10.05;4.18;;;;;;;;;;5055243;28;20074;-55
2023/02/23 13:36:04;;;;;;;11.50;5.50;;;;;;;;;;5055726;28;20044;-58
2023/02/23 13:38:36;;;;;;;7.67;4.63;;;;;;;;;;5054939;28;20053;-58
2023/02/23 13:41:09;;;;;;;10.05;3.50;;;;;;;;;;5054955;28;20259;-57
2023/02/23 13:43:44;;;;;;;7.22;3.67;;;;;;;;;;5055498;28;20025;-57
2023/02/23 13:46:16;;;;;;;7.88;3.33;;;;;;;;;;5055142;28;20383;-57
2023/02/23 13:48:51;;;;;;;4.88;3.67;;;;;;;;;;5055324;28;20367;-55
2023/02/23 13:51:17;;;;;;;5.07;3.30;;;;;;;;;;5055024;28;20025;-57
2023/02/23 13:53:58;;;;;;;4.20;2.72;;;;;;;;;;5054677;28;20029;-56
2023/02/23 13:56:26;;;;;;;6.95;2.95;;;;;;;;;;5055047;28;20116;-55
2023/02/23 13:58:57;;;;;;;6.18;3.00;;;;;;;;;;5054680;28;20039;-56
2023/02/23 14:01:29;;;;;;;6.82;3.25;;;;;;;;;;5053553;28;20146;-56
2023/02/23 14:03:57;;;;;;;5.88;4.00;;;;;;;;;;5054480;28;20371;-58
2023/02/23 14:06:24;;;;;;;7.75;3.58;;;;;;;;;;5055009;28;20036;-57
2023/02/23 14:08:52;;;;;;;5.88;3.67;;;;;;;;;;5054327;28;20033;-57
2023/02/23 14:11:47;;;;;;;5.28;3.45;;;;;;;;;;5054044;28;20074;-53
2023/02/23 14:14:15;;;;;;;7.47;4.28;;;;;;;;;;5049961;28;20423;-57
2023/02/23 14:16:42;;;;;;;9.38;4.35;;;;;;;;;;5054474;28;20041;-57
2023/02/23 14:19:27;;;;;;;7.10;4.40;;;;;;;;;;5054040;28;20119;-55
2023/02/23 14:22:00;;;;;;;5.32;3.83;;;;;;;;;;5054492;28;20131;-57
2023/02/23 14:24:27;;;;;;;8.07;4.15;;;;;;;;;;5054126;28;20367;-57
2023/02/23 14:27:02;;;;;;;8.30;5.85;;;;;;;;;;5054115;28;20459;-56
2023/02/23 14:29:30;;;;;;;7.32;4.93;;;;;;;;;;5054027;28;20029;-57
2023/02/23 14:32:11;;;;;;;5.45;4.53;;;;;;;;;;5054689;28;20455;-58
2023/02/23 14:34:52;;;;;;;18.95;7.70;;;;;;;;;;5053617;28;20087;-57
2023/02/23 14:37:20;;;;;;;9.55;5.25;;;;;;;;;;5053587;28;20055;-54
2023/02/23 14:39:48;;;;;;;9.30;5.25;;;;;;;;;;5054627;28;20117;-58
2023/02/23 14:42:20;;;;;;;9.63;4.57;;;;;;;;;;5053675;28;20414;-57
2023/02/23 14:44:50;;;;;;;7.55;5.43;;;;;;;;;;5053581;28;20459;-54
2023/02/23 14:47:17;;;;;;;7.53;5.32;;;;;;;;;;5053705;28;20029;-56
2023/02/23 14:49:44;;;;;;;6.40;5.03;;;;;;;;;;5053370;28;20467;-56
2023/02/23 14:52:43;;;;;;;8.50;5.60;;;;;;;;;;5053575;28;20036;-57
2023/02/23 14:55:12;;;;;;;6.50;4.80;;;;;;;;;;5041596;28;20467;-56
2023/02/23 14:57:39;;;;;;;6.40;4.75;;;;;;;;;;5053317;28;20111;-56
2023/02/23 15:00:16;;;;;;;10.55;4.40;;;;;;;;;;5053593;28;20025;-57
2023/02/23 15:02:54;;;;;;;6.15;4.13;;;;;;;;;;5054277;28;20083;-55
2023/02/23 15:05:22;;;;;;;8.00;4.05;;;;;;;;;;5053618;28;20475;-56
2023/02/23 15:07:50;;;;;;;7.85;5.25;;;;;;;;;;5054191;28;20032;-58
2023/02/23 15:10:28;;;;;;;8.73;5.30;;;;;;;;;;5053492;28;20025;-57
2023/02/23 15:12:55;;;;;;;9.70;4.53;;;;;;;;;;5053364;28;20057;-57
2023/02/23 15:15:23;;;;;;;8.30;4.88;;;;;;;;;;5054252;28;20033;-57
2023/02/23 15:17:51;;;;;;;6.53;4.32;;;;;;;;;;5053439;28;20033;-57
2023/02/23 15:20:18;;;;;;;6.57;3.92;;;;;;;;;;5053553;28;20111;-57
2023/02/23 15:22:46;;;;;;;8.73;4.00;;;;;;;;;;5053759;28;20029;-56
2023/02/23 15:25:17;;;;;;;7.15;4.05;;;;;;;;;;5053939;28;20036;-57
2023/02/23 15:27:44;;;;;;;5.07;3.58;;;;;;;;;;5053428;28;20486;-55
2023/02/23 15:30:29;;;;;;;3.95;2.83;;;;;;;;;;5053886;28;20052;-58
2023/02/23 15:33:27;;;;;;;12.57;2.78;;;;;;;;;;5053265;28;20028;-57
2023/02/23 15:36:07;;;;;;;3.80;2.55;;;;;;;;;;5052850;28;20379;-57
2023/02/23 15:38:35;;;;;;;6.35;1.88;;;;;;;;;;5053783;28;20029;-57
2023/02/23 15:41:04;;;;;;;4.07;2.53;;;;;;;;;;5053211;28;20029;-57
2023/02/23 15:43:32;;;;;;;4.50;2.40;;;;;;;;;;5053286;28;20070;-57
2023/02/23 15:46:03;;;;;;;4.43;2.22;;;;;;;;;;5053620;28;20045;-57
2023/02/23 15:48:37;;;;;;;7.18;2.70;;;;;;;;;;5053204;28;20037;-55
2023/02/23 15:51:05;;;;;;;4.28;2.38;;;;;;;;;;5053762;28;20033;-57
2023/02/23 15:53:37;;;;;;;5.15;3.30;;;;;;;;;;5053085;28;20112;-54
2023/02/23 15:56:09;;;;;;;6.03;3.45;;;;;;;;;;5056399;28;20025;-56
2023/02/23 15:58:39;;;;;;;6.05;3.85;;;;;;;;;;5057377;28;20040;-57
2023/02/23 16:01:09;;;;;;;8.75;3.55;;;;;;;;;;5056899;28;20033;-55
2023/02/23 16:03:37;;;;;;;4.95;3.72;;;;;;;;;;5056794;28;20032;-56
2023/02/23 16:06:08;;;;;;;6.43;3.13;;;;;;;;;;5057342;28;20059;-55